createdAt,value
2022-10-31T00:01:02.681Z,2598
2022-10-31T00:02:02.521Z,2584
2022-10-31T00:03:02.808Z,2523
2022-10-31T00:04:02.471Z,2124
2022-10-31T00:06:02.701Z,2556
2022-10-31T00:07:02.469Z,2504
2022-10-31T00:08:02.479Z,2226
2022-10-31T00:09:02.530Z,2530
2022-10-31T00:11:02.659Z,2513
2022-10-31T00:12:02.473Z,2212
2022-10-31T00:13:02.779Z,2207
2022-10-31T00:14:02.472Z,2551
2022-10-31T00:16:02.736Z,2485
2022-10-31T00:17:02.470Z,2212
2022-10-31T00:18:02.638Z,2199
2022-10-31T00:19:02.530Z,2593
2022-10-31T00:21:02.677Z,2508
2022-10-31T00:22:02.475Z,2287
2022-10-31T00:23:02.531Z,2625
2022-10-31T00:24:02.478Z,2434
2022-10-31T00:26:02.684Z,2611
2022-10-31T00:27:02.524Z,2571
2022-10-31T00:28:02.576Z,2257
2022-10-31T00:29:02.526Z,2611
2022-10-31T00:31:02.678Z,2270
2022-10-31T00:32:02.528Z,2199
2022-10-31T00:33:02.815Z,2513
2022-10-31T00:34:02.550Z,2523
2022-10-31T00:36:02.663Z,2056
2022-10-31T00:37:02.480Z,2548
2022-10-31T00:38:02.549Z,2548
2022-10-31T00:39:02.552Z,2203
2022-10-31T00:41:02.691Z,2302
2022-10-31T00:42:02.533Z,2598
2022-10-31T00:43:03.047Z,2220
2022-10-31T00:44:02.531Z,2570
2022-10-31T00:46:02.664Z,2581
2022-10-31T00:47:02.493Z,2251
2022-10-31T00:48:02.805Z,2608
2022-10-31T00:49:02.543Z,2618
2022-10-31T00:51:02.674Z,2598
2022-10-31T00:52:02.530Z,2598
2022-10-31T00:53:02.526Z,2584
2022-10-31T00:54:02.495Z,2584
2022-10-31T00:56:02.661Z,2584
2022-10-31T00:57:02.543Z,2530
2022-10-31T00:58:02.910Z,2584
2022-10-31T00:59:02.487Z,2234
2022-10-31T01:01:02.788Z,2584
2022-10-31T01:02:02.665Z,2246
2022-10-31T01:03:02.692Z,2246
2022-10-31T01:04:02.544Z,2230
2022-10-31T01:06:02.668Z,2251
2022-10-31T01:07:02.496Z,2473
2022-10-31T01:08:02.504Z,2180
2022-10-31T01:09:02.562Z,2576
2022-10-31T01:11:02.736Z,2234
2022-10-31T01:12:02.562Z,2548
2022-10-31T01:13:02.701Z,2394
2022-10-31T01:14:02.497Z,2518
2022-10-31T01:16:02.684Z,2518
2022-10-31T01:17:02.493Z,2191
2022-10-31T01:18:02.732Z,2485
2022-10-31T01:19:02.972Z,2535
2022-10-31T01:21:02.680Z,2207
2022-10-31T01:22:02.537Z,2514
2022-10-31T01:23:02.502Z,2203
2022-10-31T01:24:02.546Z,2535
2022-10-31T01:26:02.680Z,2702
2022-10-31T01:27:02.500Z,2501
2022-10-31T01:28:02.679Z,2189
2022-10-31T01:29:02.544Z,2530
2022-10-31T01:31:02.694Z,2492
2022-10-31T01:32:02.507Z,2257
2022-10-31T01:33:02.791Z,2527
2022-10-31T01:34:02.592Z,2344
2022-10-31T01:36:02.685Z,2518
2022-10-31T01:37:02.553Z,2116
2022-10-31T01:38:02.506Z,2146
2022-10-31T01:39:02.585Z,2118
2022-10-31T01:41:02.712Z,2382
2022-10-31T01:42:02.572Z,2164
2022-10-31T01:43:02.729Z,2438
2022-10-31T01:44:02.508Z,2118
2022-10-31T01:46:02.694Z,2134
2022-10-31T01:47:02.569Z,2556
2022-10-31T01:48:02.756Z,2166
2022-10-31T01:49:02.515Z,2166
2022-10-31T01:51:02.712Z,2191
2022-10-31T01:52:02.512Z,2598
2022-10-31T01:53:02.523Z,2659
2022-10-31T01:54:02.574Z,2246
2022-10-31T01:56:02.718Z,2584
2022-10-31T01:57:02.570Z,2584
2022-10-31T01:58:02.927Z,2598
2022-10-31T01:59:02.589Z,2306
2022-10-31T02:01:04.840Z,2628
2022-10-31T02:02:02.687Z,2234
2022-10-31T02:03:02.962Z,2306
2022-10-31T02:04:02.560Z,2576
2022-10-31T02:06:02.702Z,2570
2022-10-31T02:07:02.556Z,2576
2022-10-31T02:08:02.585Z,2556
2022-10-31T02:09:02.562Z,2160
2022-10-31T02:11:02.765Z,2539
2022-10-31T02:12:02.518Z,2197
2022-10-31T02:13:02.731Z,2344
2022-10-31T02:14:02.568Z,2240
2022-10-31T02:16:02.703Z,2212
2022-10-31T02:17:02.556Z,2527
2022-10-31T02:18:02.669Z,2504
2022-10-31T02:19:02.558Z,2430
2022-10-31T02:21:02.702Z,2128
2022-10-31T02:22:02.523Z,2369
2022-10-31T02:23:02.568Z,1781
2022-10-31T02:24:02.561Z,2492
2022-10-31T02:26:02.707Z,2355
2022-10-31T02:27:02.526Z,2576
2022-10-31T02:28:02.912Z,2166
2022-10-31T02:29:02.579Z,2576
2022-10-31T02:31:02.709Z,2199
2022-10-31T02:32:02.572Z,2514
2022-10-31T02:33:02.790Z,2146
2022-10-31T02:34:02.530Z,2463
2022-10-31T02:36:02.728Z,2463
2022-10-31T02:37:02.598Z,2492
2022-10-31T02:38:02.574Z,2197
2022-10-31T02:39:02.532Z,2450
2022-10-31T02:41:02.711Z,2514
2022-10-31T02:42:02.577Z,2191
2022-10-31T02:43:02.805Z,2495
2022-10-31T02:44:02.600Z,1935
2022-10-31T02:46:02.725Z,2443
2022-10-31T02:47:02.579Z,2473
2022-10-31T02:48:02.767Z,2197
2022-10-31T02:49:02.577Z,2122
2022-10-31T02:51:02.717Z,2459
2022-10-31T02:52:02.527Z,2413
2022-10-31T02:53:02.579Z,2076
2022-10-31T02:54:02.565Z,2413
2022-10-31T02:56:02.782Z,2463
2022-10-31T02:57:02.537Z,2560
2022-10-31T02:58:02.962Z,2418
2022-10-31T02:59:02.581Z,2212
2022-10-31T03:01:02.760Z,2324
2022-10-31T03:02:02.633Z,2508
2022-10-31T03:03:02.899Z,2719
2022-10-31T03:04:02.588Z,2551
2022-10-31T03:06:02.775Z,2618
2022-10-31T03:07:02.543Z,2197
2022-10-31T03:08:02.581Z,2447
2022-10-31T03:09:02.585Z,2094
2022-10-31T03:11:02.815Z,2560
2022-10-31T03:12:02.590Z,2106
2022-10-31T03:13:02.877Z,2372
2022-10-31T03:14:02.594Z,2080
2022-10-31T03:16:02.752Z,2076
2022-10-31T03:17:02.592Z,2347
2022-10-31T03:18:02.937Z,2020
2022-10-31T03:19:02.592Z,2388
2022-10-31T03:21:02.725Z,2361
2022-10-31T03:22:02.592Z,2421
2022-10-31T03:23:02.587Z,2527
2022-10-31T03:24:02.595Z,2094
2022-10-31T03:26:02.731Z,2361
2022-10-31T03:27:02.584Z,2180
2022-10-31T03:28:03.048Z,2501
2022-10-31T03:29:02.556Z,2488
2022-10-31T03:31:03.570Z,2459
2022-10-31T03:32:02.591Z,2036
2022-10-31T03:33:02.828Z,2394
2022-10-31T03:34:02.588Z,2072
2022-10-31T03:36:02.796Z,2056
2022-10-31T03:37:02.601Z,2399
2022-10-31T03:38:04.135Z,2394
2022-10-31T03:39:02.597Z,2038
2022-10-31T03:41:02.728Z,2355
2022-10-31T03:42:02.624Z,1825
2022-10-31T03:43:02.697Z,2351
2022-10-31T03:44:02.625Z,2382
2022-10-31T03:46:02.741Z,2086
2022-10-31T03:47:02.597Z,2380
2022-10-31T03:48:02.927Z,2072
2022-10-31T03:49:02.597Z,2076
2022-10-31T03:51:02.743Z,2523
2022-10-31T03:52:02.604Z,2226
2022-10-31T03:53:02.560Z,2469
2022-10-31T03:54:02.573Z,2259
2022-10-31T03:56:02.810Z,1469
2022-10-31T03:57:02.562Z,2514
2022-10-31T03:58:03.081Z,2094
2022-10-31T03:59:02.561Z,2548
2022-10-31T04:01:02.841Z,2402
2022-10-31T04:02:02.690Z,2739
2022-10-31T04:03:02.850Z,2478
2022-10-31T04:04:02.570Z,2425
2022-10-31T04:06:02.830Z,2535
2022-10-31T04:07:02.607Z,2315
2022-10-31T04:08:02.619Z,2365
2022-10-31T04:09:02.565Z,2106
2022-10-31T04:11:02.750Z,1889
2022-10-31T04:12:02.604Z,2681
2022-10-31T04:13:02.925Z,2050
2022-10-31T04:14:02.612Z,2390
2022-10-31T04:16:02.810Z,2755
2022-10-31T04:17:02.567Z,2134
2022-10-31T04:18:02.720Z,2611
2022-10-31T04:19:02.613Z,2548
2022-10-31T04:21:02.821Z,2488
2022-10-31T04:22:02.573Z,2382
2022-10-31T04:23:02.573Z,2068
2022-10-31T04:24:02.575Z,2344
2022-10-31T04:26:02.759Z,1995
2022-10-31T04:27:02.580Z,2390
2022-10-31T04:28:03.012Z,2421
2022-10-31T04:29:02.572Z,2056
2022-10-31T04:31:02.763Z,2291
2022-10-31T04:32:02.572Z,2152
2022-10-31T04:33:02.879Z,2344
2022-10-31T04:34:02.573Z,2257
2022-10-31T04:36:02.844Z,2344
2022-10-31T04:37:02.620Z,2150
2022-10-31T04:38:02.618Z,2456
2022-10-31T04:39:02.623Z,2551
2022-10-31T04:41:02.874Z,2438
2022-10-31T04:42:02.623Z,2581
2022-10-31T04:43:02.848Z,2180
2022-10-31T04:44:02.620Z,2488
2022-10-31T04:46:02.782Z,2443
2022-10-31T04:47:02.619Z,2072
2022-10-31T04:48:03.000Z,2390
2022-10-31T04:49:02.639Z,2282
2022-10-31T04:51:02.759Z,2230
2022-10-31T04:52:02.633Z,2324
2022-10-31T04:53:02.630Z,1931
2022-10-31T04:54:02.624Z,2242
2022-10-31T04:56:02.770Z,1781
2022-10-31T04:57:02.624Z,2132
2022-10-31T04:58:02.988Z,1985
2022-10-31T04:59:02.629Z,1897
2022-10-31T05:01:02.830Z,1886
2022-10-31T05:02:02.810Z,2090
2022-10-31T05:03:03.054Z,1781
2022-10-31T05:04:02.640Z,2090
2022-10-31T05:06:02.822Z,1827
2022-10-31T05:07:02.591Z,2132
2022-10-31T05:08:02.625Z,1827
2022-10-31T05:09:02.583Z,1839
2022-10-31T05:11:04.157Z,2106
2022-10-31T05:12:02.594Z,2122
2022-10-31T05:13:02.921Z,1831
2022-10-31T05:14:02.596Z,2106
2022-10-31T05:16:02.831Z,2080
2022-10-31T05:17:02.664Z,2086
2022-10-31T05:18:02.898Z,2086
2022-10-31T05:19:02.597Z,1613
2022-10-31T05:21:02.773Z,1816
2022-10-31T05:22:02.593Z,1904
2022-10-31T05:23:02.632Z,1985
2022-10-31T05:24:02.594Z,1716
2022-10-31T05:26:02.862Z,1728
2022-10-31T05:27:02.639Z,1993
2022-10-31T05:28:02.881Z,2014
2022-10-31T05:29:02.642Z,1784
2022-10-31T05:31:02.858Z,1980
2022-10-31T05:32:02.663Z,1691
2022-10-31T05:33:02.995Z,1967
2022-10-31T05:34:02.648Z,2001
2022-10-31T05:36:02.843Z,2011
2022-10-31T05:37:02.601Z,1716
2022-10-31T05:38:02.645Z,2064
2022-10-31T05:39:02.656Z,1777
2022-10-31T05:41:02.857Z,1777
2022-10-31T05:42:02.652Z,2026
2022-10-31T05:43:02.936Z,1744
2022-10-31T05:44:02.655Z,2004
2022-10-31T05:46:02.781Z,1999
2022-10-31T05:47:02.660Z,1792
2022-10-31T05:48:03.000Z,2128
2022-10-31T05:49:02.959Z,2068
2022-10-31T05:51:02.802Z,2090
2022-10-31T05:52:02.650Z,1802
2022-10-31T05:53:02.652Z,2090
2022-10-31T05:54:02.657Z,2068
2022-10-31T05:56:02.798Z,2100
2022-10-31T05:57:02.653Z,2090
2022-10-31T05:58:02.875Z,1839
2022-10-31T05:59:02.645Z,2090
2022-10-31T06:01:02.857Z,2072
2022-10-31T06:02:02.604Z,1827
2022-10-31T06:03:02.721Z,2014
2022-10-31T06:04:02.648Z,1653
2022-10-31T06:06:02.796Z,1800
2022-10-31T06:07:02.609Z,2033
2022-10-31T06:08:02.887Z,2072
2022-10-31T06:09:02.685Z,2084
2022-10-31T06:11:02.804Z,1822
2022-10-31T06:12:02.615Z,2106
2022-10-31T06:13:02.647Z,1819
2022-10-31T06:14:02.614Z,2094
2022-10-31T06:16:02.807Z,2094
2022-10-31T06:17:02.611Z,1737
2022-10-31T06:18:03.132Z,1945
2022-10-31T06:19:02.619Z,1990
2022-10-31T06:21:02.856Z,1993
2022-10-31T06:22:02.623Z,1808
2022-10-31T06:23:03.076Z,2094
2022-10-31T06:24:02.613Z,1808
2022-10-31T06:26:02.899Z,2080
2022-10-31T06:27:02.670Z,1995
2022-10-31T06:28:02.649Z,1737
2022-10-31T06:29:03.886Z,2008
2022-10-31T06:31:02.893Z,2008
2022-10-31T06:32:02.668Z,1990
2022-10-31T06:33:02.887Z,1977
2022-10-31T06:34:02.659Z,1977
2022-10-31T06:36:02.801Z,2050
2022-10-31T06:37:02.659Z,1593
2022-10-31T06:38:03.081Z,1897
2022-10-31T06:39:02.626Z,1642
2022-10-31T06:41:02.811Z,1889
2022-10-31T06:42:02.629Z,1680
2022-10-31T06:43:02.699Z,1952
2022-10-31T06:44:04.851Z,1904
2022-10-31T06:46:02.818Z,1964
2022-10-31T06:47:02.630Z,1667
2022-10-31T06:48:17.885Z,1985
2022-10-31T06:49:02.676Z,1697
2022-10-31T06:51:02.816Z,1698
2022-10-31T06:52:02.673Z,1980
2022-10-31T06:53:02.725Z,1990
2022-10-31T06:54:02.676Z,1990
2022-10-31T06:56:02.802Z,1731
2022-10-31T06:57:02.703Z,1919
2022-10-31T06:58:03.019Z,1658
2022-10-31T06:59:02.711Z,1895
2022-10-31T07:01:02.898Z,1907
2022-10-31T07:02:02.856Z,1667
2022-10-31T07:03:02.635Z,1928
2022-10-31T07:04:02.671Z,1680
2022-10-31T07:06:02.813Z,1948
2022-10-31T07:07:02.635Z,1546
2022-10-31T07:08:02.972Z,1666
2022-10-31T07:09:02.670Z,1939
2022-10-31T07:11:02.847Z,1952
2022-10-31T07:12:02.687Z,1612
2022-10-31T07:13:02.912Z,1844
2022-10-31T07:14:02.679Z,1626
2022-10-31T07:16:02.822Z,1500
2022-10-31T07:17:02.686Z,1919
2022-10-31T07:18:02.640Z,1919
2022-10-31T07:19:02.674Z,1942
2022-10-31T07:21:02.876Z,1921
2022-10-31T07:22:02.639Z,1604
2022-10-31T07:23:02.825Z,1867
2022-10-31T07:24:02.701Z,1848
2022-10-31T07:26:02.838Z,1626
2022-10-31T07:27:02.649Z,1884
2022-10-31T07:28:02.957Z,1880
2022-10-31T07:29:02.697Z,1639
2022-10-31T07:31:02.829Z,1635
2022-10-31T07:32:02.713Z,1904
2022-10-31T07:33:02.650Z,1919
2022-10-31T07:34:02.723Z,1670
2022-10-31T07:36:02.858Z,1936
2022-10-31T07:37:02.647Z,1600
2022-10-31T07:38:02.856Z,1552
2022-10-31T07:39:02.694Z,1850
2022-10-31T07:41:02.823Z,1634
2022-10-31T07:42:02.701Z,1800
2022-10-31T07:43:02.703Z,1844
2022-10-31T07:44:02.681Z,1886
2022-10-31T07:46:02.828Z,1549
2022-10-31T07:47:02.726Z,1860
2022-10-31T07:48:02.998Z,1629
2022-10-31T07:49:02.659Z,1919
2022-10-31T07:51:02.831Z,1964
2022-10-31T07:52:02.701Z,1658
2022-10-31T07:53:02.651Z,1683
2022-10-31T07:54:02.659Z,1928
2022-10-31T07:56:02.923Z,1928
2022-10-31T07:57:02.661Z,1600
2022-10-31T07:58:03.028Z,1631
2022-10-31T07:59:02.656Z,1635
2022-10-31T08:01:02.909Z,1892
2022-10-31T08:02:02.727Z,1841
2022-10-31T08:03:03.040Z,1925
2022-10-31T08:04:02.698Z,1819
2022-10-31T08:06:02.842Z,1952
2022-10-31T08:07:02.660Z,1939
2022-10-31T08:08:02.911Z,1916
2022-10-31T08:09:02.669Z,1525
2022-10-31T08:11:02.846Z,1939
2022-10-31T08:12:02.698Z,1625
2022-10-31T08:13:02.670Z,1948
2022-10-31T08:14:02.704Z,1869
2022-10-31T08:16:02.870Z,1650
2022-10-31T08:17:02.710Z,1712
2022-10-31T08:18:02.953Z,1919
2022-10-31T08:19:02.708Z,1911
2022-10-31T08:21:02.852Z,1911
2022-10-31T08:22:02.711Z,1864
2022-10-31T08:23:02.675Z,1594
2022-10-31T08:24:02.674Z,1609
2022-10-31T08:26:02.856Z,1541
2022-10-31T08:27:02.711Z,1663
2022-10-31T08:28:03.092Z,1889
2022-10-31T08:29:02.706Z,1931
2022-10-31T08:31:02.850Z,1889
2022-10-31T08:32:02.741Z,1643
2022-10-31T08:33:02.717Z,1629
2022-10-31T08:34:02.746Z,1827
2022-10-31T08:36:02.854Z,1759
2022-10-31T08:37:02.717Z,1559
2022-10-31T08:38:03.033Z,1811
2022-10-31T08:39:02.720Z,1643
2022-10-31T08:41:02.936Z,1559
2022-10-31T08:42:02.741Z,1537
2022-10-31T08:43:02.724Z,1784
2022-10-31T08:44:02.742Z,1790
2022-10-31T08:46:02.853Z,1808
2022-10-31T08:47:02.697Z,1860
2022-10-31T08:48:03.062Z,1688
2022-10-31T08:49:02.685Z,1067
2022-10-31T08:51:02.878Z,1855
2022-10-31T08:52:02.681Z,1792
2022-10-31T08:53:05.507Z,1792
2022-10-31T08:54:02.680Z,1774
2022-10-31T08:56:02.876Z,1510
2022-10-31T08:57:02.692Z,1647
2022-10-31T08:58:02.947Z,1653
2022-10-31T08:59:02.694Z,1629
2022-10-31T09:01:02.915Z,1653
2022-10-31T09:02:02.804Z,1411
2022-10-31T09:03:02.690Z,1643
2022-10-31T09:04:02.692Z,1404
2022-10-31T09:06:02.944Z,1378
2022-10-31T09:07:19.944Z,1634
2022-10-31T09:08:02.935Z,1600
2022-10-31T09:09:02.690Z,1570
2022-10-31T09:11:02.880Z,1490
2022-10-31T09:12:02.688Z,1529
2022-10-31T09:13:02.698Z,1522
2022-10-31T09:14:02.691Z,1510
2022-10-31T09:16:02.907Z,1304
2022-10-31T09:17:02.694Z,1532
2022-10-31T09:18:03.021Z,1498
2022-10-31T09:19:05.177Z,1390
2022-10-31T09:21:02.925Z,1270
2022-10-31T09:22:02.692Z,1232
2022-10-31T09:23:02.740Z,1217
2022-10-31T09:24:02.700Z,1213
2022-10-31T09:26:02.895Z,1213
2022-10-31T09:27:02.743Z,1240
2022-10-31T09:28:02.995Z,1338
2022-10-31T09:29:02.701Z,1215
2022-10-31T09:31:02.885Z,1215
2022-10-31T09:32:02.748Z,1182
2022-10-31T09:33:02.701Z,1211
2022-10-31T09:34:02.738Z,1190
2022-10-31T09:36:02.889Z,1196
2022-10-31T09:37:02.701Z,1213
2022-10-31T09:38:03.055Z,1222
2022-10-31T09:39:02.703Z,1188
2022-10-31T09:41:02.907Z,1376
2022-10-31T09:42:02.757Z,1213
2022-10-31T09:43:02.747Z,1264
2022-10-31T09:44:02.750Z,1328
2022-10-31T09:46:02.895Z,1048
2022-10-31T09:47:02.745Z,1204
2022-10-31T09:48:03.032Z,1076
2022-10-31T09:49:02.753Z,1187
2022-10-31T09:51:02.978Z,1456
2022-10-31T09:52:02.771Z,1399
2022-10-31T09:53:02.984Z,1190
2022-10-31T09:54:02.766Z,1164
2022-10-31T09:56:02.988Z,1288
2022-10-31T09:57:02.759Z,1363
2022-10-31T09:58:02.712Z,1262
2022-10-31T09:59:02.765Z,1279
2022-10-31T10:01:03.291Z,1249
2022-10-31T10:02:02.862Z,1307
2022-10-31T10:03:02.979Z,1330
2022-10-31T10:04:02.722Z,1201
2022-10-31T10:06:02.930Z,1087
2022-10-31T10:07:02.792Z,1301
2022-10-31T10:08:02.719Z,1209
2022-10-31T10:09:02.725Z,1119
2022-10-31T10:11:02.903Z,1242
2022-10-31T10:12:02.723Z,1330
2022-10-31T10:13:03.641Z,1121
2022-10-31T10:14:02.770Z,1067
2022-10-31T10:16:02.915Z,1229
2022-10-31T10:17:02.773Z,1122
2022-10-31T10:18:02.723Z,1176
2022-10-31T10:19:02.766Z,1085
2022-10-31T10:21:02.900Z,1052
2022-10-31T10:22:02.761Z,887
2022-10-31T10:23:02.917Z,1043
2022-10-31T10:24:02.766Z,1045
2022-10-31T10:26:05.100Z,872
2022-10-31T10:27:02.735Z,959
2022-10-31T10:28:03.008Z,837
2022-10-31T10:29:02.781Z,964
2022-10-31T10:31:02.911Z,871
2022-10-31T10:32:02.799Z,807
2022-10-31T10:33:02.773Z,868
2022-10-31T10:34:02.733Z,916
2022-10-31T10:36:02.919Z,793
2022-10-31T10:37:02.779Z,868
2022-10-31T10:38:02.871Z,845
2022-10-31T10:39:02.735Z,653
2022-10-31T10:41:03.115Z,796
2022-10-31T10:42:02.786Z,702
2022-10-31T10:43:02.776Z,660
2022-10-31T10:44:02.791Z,733
2022-10-31T10:46:05.297Z,785
2022-10-31T10:47:02.744Z,714
2022-10-31T10:48:03.026Z,659
2022-10-31T10:49:02.747Z,714
2022-10-31T10:51:02.926Z,766
2022-10-31T10:52:19.189Z,699
2022-10-31T10:53:02.829Z,696
2022-10-31T10:54:06.508Z,614
2022-10-31T10:56:02.921Z,738
2022-10-31T10:57:02.793Z,749
2022-10-31T10:58:03.088Z,640
2022-10-31T10:59:02.790Z,752
2022-10-31T11:01:03.084Z,793
2022-10-31T11:02:02.758Z,755
2022-10-31T11:03:03.173Z,658
2022-10-31T11:04:02.754Z,678
2022-10-31T11:06:02.954Z,803
2022-10-31T11:07:02.753Z,750
2022-10-31T11:08:02.765Z,739
2022-10-31T11:09:02.818Z,707
2022-10-31T11:11:02.930Z,829
2022-10-31T11:12:02.794Z,710
2022-10-31T11:13:03.362Z,780
2022-10-31T11:14:02.794Z,692
2022-10-31T11:16:02.975Z,726
2022-10-31T11:17:02.804Z,682
2022-10-31T11:18:02.800Z,771
2022-10-31T11:19:02.762Z,773
2022-10-31T11:21:03.003Z,771
2022-10-31T11:22:02.796Z,646
2022-10-31T11:23:02.806Z,755
2022-10-31T11:24:02.761Z,653
2022-10-31T11:26:02.957Z,689
2022-10-31T11:27:02.761Z,772
2022-10-31T11:28:02.802Z,672
2022-10-31T11:29:02.811Z,701
2022-10-31T11:31:02.959Z,733
2022-10-31T11:32:02.767Z,637
2022-10-31T11:33:03.052Z,515
2022-10-31T11:34:02.804Z,623
2022-10-31T11:36:02.942Z,580
2022-10-31T11:37:02.812Z,612
2022-10-31T11:38:03.302Z,497
2022-10-31T11:39:02.775Z,600
2022-10-31T11:41:02.953Z,447
2022-10-31T11:42:04.964Z,507
2022-10-31T11:43:02.815Z,611
2022-10-31T11:44:02.844Z,606
2022-10-31T11:46:03.014Z,639
2022-10-31T11:47:02.813Z,585
2022-10-31T11:48:03.424Z,495
2022-10-31T11:49:02.788Z,593
2022-10-31T11:51:02.956Z,500
2022-10-31T11:52:02.774Z,665
2022-10-31T11:53:02.819Z,633
2022-10-31T11:54:03.179Z,554
2022-10-31T11:56:02.969Z,519
2022-10-31T11:57:02.779Z,646
2022-10-31T11:58:03.066Z,629
2022-10-31T11:59:02.817Z,480
2022-10-31T12:01:02.985Z,464
2022-10-31T12:02:02.945Z,573
2022-10-31T12:03:03.119Z,520
2022-10-31T12:04:02.782Z,548
2022-10-31T12:06:02.964Z,525
2022-10-31T12:07:02.789Z,552
2022-10-31T12:08:04.312Z,475
2022-10-31T12:09:02.791Z,454
2022-10-31T12:11:03.060Z,491
2022-10-31T12:12:02.837Z,487
2022-10-31T12:13:03.073Z,476
2022-10-31T12:14:03.959Z,407
2022-10-31T12:16:02.965Z,487
2022-10-31T12:17:02.835Z,481
2022-10-31T12:18:02.801Z,466
2022-10-31T12:19:02.788Z,487
2022-10-31T12:21:02.969Z,432
2022-10-31T12:22:02.794Z,483
2022-10-31T12:23:03.188Z,492
2022-10-31T12:24:02.863Z,507
2022-10-31T12:26:02.990Z,487
2022-10-31T12:27:02.805Z,422
2022-10-31T12:28:02.799Z,488
2022-10-31T12:29:02.808Z,526
2022-10-31T12:31:02.996Z,446
2022-10-31T12:32:02.868Z,487
2022-10-31T12:33:03.075Z,454
2022-10-31T12:34:02.856Z,498
2022-10-31T12:36:02.984Z,428
2022-10-31T12:37:02.881Z,506
2022-10-31T12:38:03.037Z,526
2022-10-31T12:39:02.869Z,540
2022-10-31T12:41:02.996Z,552
2022-10-31T12:42:02.807Z,564
2022-10-31T12:43:03.014Z,463
2022-10-31T12:44:02.815Z,551
2022-10-31T12:46:02.987Z,521
2022-10-31T12:47:02.855Z,514
2022-10-31T12:48:02.857Z,445
2022-10-31T12:49:02.814Z,483
2022-10-31T12:51:03.004Z,596
2022-10-31T12:52:02.812Z,519
2022-10-31T12:53:03.259Z,518
2022-10-31T12:54:02.856Z,554
2022-10-31T12:56:03.059Z,577
2022-10-31T12:57:02.813Z,517
2022-10-31T12:58:03.237Z,453
2022-10-31T12:59:02.832Z,516
2022-10-31T13:01:03.121Z,447
2022-10-31T13:02:02.943Z,514
2022-10-31T13:03:02.822Z,563
2022-10-31T13:04:02.857Z,525
2022-10-31T13:06:03.034Z,516
2022-10-31T13:07:02.863Z,465
2022-10-31T13:08:03.226Z,519
2022-10-31T13:09:02.863Z,446
2022-10-31T13:11:03.033Z,524
2022-10-31T13:12:02.890Z,515
2022-10-31T13:13:03.009Z,433
2022-10-31T13:14:02.898Z,516
2022-10-31T13:16:03.007Z,507
2022-10-31T13:17:02.873Z,534
2022-10-31T13:18:02.880Z,455
2022-10-31T13:19:02.876Z,507
2022-10-31T13:21:03.027Z,538
2022-10-31T13:22:02.828Z,441
2022-10-31T13:23:03.172Z,526
2022-10-31T13:24:02.870Z,488
2022-10-31T13:26:03.024Z,552
2022-10-31T13:27:02.832Z,447
2022-10-31T13:28:02.837Z,501
2022-10-31T13:29:02.829Z,498
2022-10-31T13:31:03.008Z,503
2022-10-31T13:32:02.832Z,483
2022-10-31T13:33:03.173Z,424
2022-10-31T13:34:02.837Z,404
2022-10-31T13:36:03.071Z,456
2022-10-31T13:37:02.879Z,400
2022-10-31T13:38:02.835Z,542
2022-10-31T13:39:02.882Z,459
2022-10-31T13:41:03.031Z,630
2022-10-31T13:42:02.836Z,640
2022-10-31T13:43:03.254Z,676
2022-10-31T13:44:02.841Z,744
2022-10-31T13:46:03.035Z,564
2022-10-31T13:47:02.847Z,765
2022-10-31T13:48:03.134Z,733
2022-10-31T13:49:02.909Z,669
2022-10-31T13:51:03.045Z,653
2022-10-31T13:52:02.854Z,737
2022-10-31T13:53:02.887Z,589
2022-10-31T13:54:02.891Z,645
2022-10-31T13:56:03.122Z,650
2022-10-31T13:57:02.886Z,561
2022-10-31T13:58:03.109Z,713
2022-10-31T13:59:02.957Z,628
2022-10-31T14:01:03.144Z,637
2022-10-31T14:02:02.985Z,506
2022-10-31T14:03:02.925Z,596
2022-10-31T14:04:09.443Z,497
2022-10-31T14:06:03.046Z,564
2022-10-31T14:07:02.878Z,487
2022-10-31T14:08:03.348Z,539
2022-10-31T14:09:02.921Z,450
2022-10-31T14:11:03.147Z,567
2022-10-31T14:12:02.903Z,492
2022-10-31T14:13:02.905Z,598
2022-10-31T14:14:02.864Z,535
2022-10-31T14:16:03.100Z,457
2022-10-31T14:17:02.932Z,552
2022-10-31T14:18:03.399Z,485
2022-10-31T14:19:02.861Z,514
2022-10-31T14:21:03.051Z,587
2022-10-31T14:22:02.916Z,533
2022-10-31T14:23:02.860Z,457
2022-10-31T14:24:02.897Z,577
2022-10-31T14:26:03.064Z,457
2022-10-31T14:27:02.918Z,507
2022-10-31T14:28:03.323Z,562
2022-10-31T14:29:02.865Z,478
2022-10-31T14:31:03.043Z,498
2022-10-31T14:32:02.867Z,463
2022-10-31T14:33:02.870Z,463
2022-10-31T14:34:02.868Z,523
2022-10-31T14:36:03.114Z,519
2022-10-31T14:37:02.916Z,544
2022-10-31T14:38:03.132Z,570
2022-10-31T14:39:02.868Z,618
2022-10-31T14:41:03.084Z,476
2022-10-31T14:42:02.917Z,574
2022-10-31T14:43:03.261Z,596
2022-10-31T14:44:02.876Z,629
2022-10-31T14:46:03.111Z,572
2022-10-31T14:47:02.891Z,687
2022-10-31T14:48:05.228Z,653
2022-10-31T14:49:02.883Z,647
2022-10-31T14:51:03.071Z,656
2022-10-31T14:52:02.892Z,620
2022-10-31T14:53:03.190Z,637
2022-10-31T14:54:02.890Z,637
2022-10-31T14:56:06.813Z,614
2022-10-31T14:57:02.887Z,657
2022-10-31T14:58:02.932Z,750
2022-10-31T14:59:02.923Z,755
2022-10-31T15:01:03.137Z,639
2022-10-31T15:02:03.002Z,599
2022-10-31T15:03:03.076Z,633
2022-10-31T15:04:22.200Z,599
2022-10-31T15:06:03.072Z,767
2022-10-31T15:07:02.927Z,781
2022-10-31T15:08:02.883Z,777
2022-10-31T15:09:02.884Z,808
2022-10-31T15:11:03.124Z,842
2022-10-31T15:12:02.930Z,765
2022-10-31T15:13:03.121Z,755
2022-10-31T15:14:02.968Z,736
2022-10-31T15:16:03.065Z,665
2022-10-31T15:17:02.961Z,888
2022-10-31T15:18:03.328Z,702
2022-10-31T15:19:02.963Z,657
2022-10-31T15:21:03.091Z,681
2022-10-31T15:22:02.937Z,668
2022-10-31T15:23:02.898Z,844
2022-10-31T15:24:02.915Z,944
2022-10-31T15:26:03.072Z,714
2022-10-31T15:27:05.055Z,787
2022-10-31T15:28:03.268Z,766
2022-10-31T15:29:02.971Z,959
2022-10-31T15:31:03.086Z,813
2022-10-31T15:32:02.938Z,945
2022-10-31T15:33:02.901Z,942
2022-10-31T15:34:02.929Z,816
2022-10-31T15:36:03.153Z,891
2022-10-31T15:37:02.942Z,960
2022-10-31T15:38:03.268Z,853
2022-10-31T15:39:02.971Z,974
2022-10-31T15:41:03.144Z,1001
2022-10-31T15:42:02.902Z,1091
2022-10-31T15:43:02.908Z,1056
2022-10-31T15:44:02.949Z,882
2022-10-31T15:46:03.081Z,951
2022-10-31T15:47:02.981Z,1052
2022-10-31T15:48:03.332Z,1151
2022-10-31T15:49:02.907Z,998
2022-10-31T15:51:03.077Z,1043
2022-10-31T15:52:02.957Z,1130
2022-10-31T15:53:03.242Z,1113
2022-10-31T15:54:02.958Z,1229
2022-10-31T15:56:03.107Z,1115
2022-10-31T15:57:02.912Z,1141
2022-10-31T15:58:02.958Z,1127
2022-10-31T15:59:02.980Z,1033
2022-10-31T16:01:03.226Z,1270
2022-10-31T16:02:03.169Z,1244
2022-10-31T16:03:03.104Z,1200
2022-10-31T16:04:02.953Z,1257
2022-10-31T16:06:03.089Z,1046
2022-10-31T16:07:02.955Z,1052
2022-10-31T16:08:02.964Z,1049
2022-10-31T16:09:02.962Z,1258
2022-10-31T16:11:03.157Z,1130
2022-10-31T16:12:02.969Z,1173
2022-10-31T16:13:03.146Z,1115
2022-10-31T16:14:02.967Z,1383
2022-10-31T16:16:29.230Z,1276
2022-10-31T16:17:02.924Z,1309
2022-10-31T16:18:02.919Z,1503
2022-10-31T16:19:02.924Z,1051
2022-10-31T16:21:03.096Z,1451
2022-10-31T16:22:02.924Z,1545
2022-10-31T16:23:03.198Z,1537
2022-10-31T16:24:05.897Z,1518
2022-10-31T16:26:03.125Z,1587
2022-10-31T16:27:02.970Z,1244
2022-10-31T16:28:03.023Z,1217
2022-10-31T16:29:05.344Z,1340
2022-10-31T16:31:03.098Z,1376
2022-10-31T16:32:02.932Z,1594
2022-10-31T16:33:03.219Z,1451
2022-10-31T16:34:02.926Z,1429
2022-10-31T16:36:22.631Z,1490
2022-10-31T16:37:02.975Z,1688
2022-10-31T16:38:02.933Z,1740
2022-10-31T16:39:02.929Z,1574
2022-10-31T16:41:03.111Z,1594
2022-10-31T16:42:03.062Z,1746
2022-10-31T16:43:03.488Z,2026
2022-10-31T16:44:02.976Z,1853
2022-10-31T16:46:03.183Z,1895
2022-10-31T16:47:02.931Z,1661
2022-10-31T16:48:03.335Z,1661
2022-10-31T16:49:02.970Z,1735